Data for 07/07/2011

Time Sea-Level Adjusted Pressure Absolute Pressure Temperature Relative Humidity Dew Point   
(mb) (inHg) (mb) (inHg) (C) (F) (%) (C) (F)
00:05 1020 30.12 849 25.07 19.9 67.9 63 12.8 55
00:10 1020 30.12 849 25.07 19.9 67.8 63 12.8 55.1
00:15 1020 30.12 849 25.07 19.8 67.7 64 12.9 55.2
00:20 1020 30.12 849 25.07 19.8 67.6 64 12.9 55.2
00:25 1020 30.12 849 25.07 19.7 67.5 65 13 55.3
00:30 1020 30.12 849 25.07 19.7 67.4 65 12.9 55.2
00:35 1020 30.12 849 25.07 19.5 67.2 65 12.9 55.2
00:40 1020 30.12 849 25.07 19.5 67.1 65 12.9 55.2
00:45 1020 30.12 849 25.07 19.5 67.1 65 12.8 55.1
00:50 1020 30.12 849 25.07 19.4 67 66 12.9 55.3
00:55 1020 30.12 849 25.07 19.3 66.8 66 12.8 55.1
01:00 1020 30.12 849 25.07 19.3 66.7 66 12.8 55.1
01:05 1020 30.12 849 25.07 19.1 66.4 67 12.9 55.2
01:10 1020 30.12 849 25.07 19.1 66.3 66 12.6 54.8
01:15 1020 30.12 849 25.07 19.1 66.4 65 12.5 54.5
01:20 1020 30.12 849 25.07 19 66.2 66 12.6 54.6
01:25 1020 30.12 849 25.07 18.9 66 66 12.5 54.5
01:30 1020 30.12 849 25.07 18.7 65.6 66 12.3 54.1
01:35 1020 30.12 849 25.07 18.6 65.6 66 12.1 53.9
01:40 1020 30.12 849 25.07 18.5 65.4 66 12.1 53.8
01:45 1020 30.12 849 25.07 18.5 65.3 65 11.9 53.4
01:50 1020 30.12 849 25.07 18.5 65.2 65 11.8 53.2
01:55 1020 30.12 849 25.07 18.5 65.2 65 11.8 53.2
02:00 1020 30.12 849 25.07 18.4 65 66 12 53.5
02:05 1020 30.12 849 25.07 18.2 64.7 67 12 53.6
02:10 1020 30.12 849 25.07 18 64.5 68 12.1 53.8
02:15 1020 30.12 849 25.07 17.9 64.3 69 12.2 53.9
02:20 1020 30.12 849 25.07 17.9 64.1 67 11.8 53.3
02:25 1020 30.12 849 25.07 17.8 64.1 68 12 53.5
02:30 1020 30.12 849 25.07 17.7 63.8 69 12 53.6
02:35 1020 30.12 849 25.07 17.6 63.7 70 12 53.7
02:40 1020 30.12 849 25.07 17.5 63.4 70 11.9 53.5
02:45 1020 30.12 849 25.07 17.3 63.2 70 11.8 53.2
02:50 1020 30.12 849 25.07 17.3 63.1 69 11.5 52.7
02:55 1020 30.12 849 25.07 17.2 63 65 10.7 51.3
03:00 1020 30.12 849 25.07 17.2 62.9 66 11 51.8
03:05 1020 30.12 849 25.07 17.1 62.7 62 9.9 49.8
03:10 1020 30.12 849 25.07 16.9 62.4 62 9.7 49.5
03:15 1020 30.12 849 25.07 16.3 61.4 66 10 50
03:20 1020 30.12 849 25.07 16.1 61 65 9.5 49.2
03:25 1020 30.12 849 25.07 16.1 61 65 9.5 49.2
03:30 1020 30.12 849 25.07 16 60.7 64 9.3 48.7
03:35 1020 30.12 849 25.07 16.1 61 63 9.1 48.3
03:40 1020 30.12 849 25.07 16 60.8 63 9.1 48.3
03:45 1020 30.12 849 25.07 16 60.7 64 9.1 48.4
03:50 1020 30.12 849 25.07 15.8 60.4 67 9.7 49.5
03:55 1020 30.12 849 25.07 15.5 59.9 65 9.1 48.3
04:00 1020 30.12 849 25.07 15.7 60.2 63 8.7 47.6
04:05 1020 30.12 849 25.07 16.2 61.2 61 8.9 47.9
04:10 1020 30.12 849 25.07 16.5 61.6 62 9.1 48.5
04:15 1020 30.12 849 25.07 16.2 61.1 63 9.3 48.7
04:20 1020 30.12 849 25.07 16 60.8 64 9.3 48.7
04:25 1020 30.12 849 25.07 15.9 60.6 65 9.4 48.9
04:30 1020 30.12 849 25.07 15.9 60.6 63 9 48.2
04:35 1020 30.12 849 25.07 16 60.8 65 9.4 49
04:40 1020 30.12 849 25.07 15.4 59.7 66 9.1 48.4
04:45 1020 30.12 849 25.07 15 59 67 9 48.2
04:50 1020 30.12 849 25.07 14.9 58.8 66 8.8 47.8
04:55 1020 30.12 849 25.07 15 59 68 9.3 48.7
05:00 1020 30.12 849 25.07 15.1 59.1 66 8.8 47.9
05:05 1020 30.12 849 25.07 15.2 59.4 65 8.7 47.6
05:10 1020 30.12 849 25.07 15.3 59.6 65 8.8 47.9
05:15 1020 30.12 849 25.07 15.5 59.8 64 8.8 47.9
05:20 1020 30.12 849 25.07 15.6 60 65 9 48.2
05:25 1020 30.12 849 25.07 15.4 59.8 65 8.9 48.1
05:30 1020 30.12 849 25.07 15.4 59.7 65 8.8 47.9
05:35 1020 30.12 849 25.07 15.5 59.9 63 8.6 47.5
05:40 1020 30.12 849 25.07 15.8 60.4 66 9.5 49.1
05:45 1020 30.12 849 25.07 15.8 60.4 63 8.9 48
05:50 1020 30.12 849 25.07 15.9 60.7 63 8.9 48
05:55 1020 30.12 849 25.07 16 60.8 63 9.1 48.3
06:00 1020 30.12 849 25.07 15.9 60.6 64 9 48.3
06:05 1020 30.12 849 25.07 15.9 60.5 63 8.9 48.1
06:10 1020 30.12 849 25.07 16.1 61 63 9.1 48.3
06:15 1020 30.12 849 25.07 16.2 61.1 64 9.3 48.8
06:20 1020 30.12 849 25.07 16.1 61.1 64 9.3 48.8
06:25 1020 30.12 849 25.07 16.2 61.1 63 9.3 48.8
06:30 1020 30.12 849 25.07 16.6 61.9 63 9.7 49.4
06:35 1020 30.12 849 25.07 16.9 62.4 62 9.6 49.3
06:40 1020 30.12 849 25.07 17.1 62.8 61 9.6 49.2
06:45 1020 30.12 849 25.07 17.6 63.7 61 10 50
06:50 1020 30.12 849 25.07 17.5 63.5 60 9.7 49.5
06:55 1020 30.12 850 25.1 17.7 63.8 61 10.1 50.1
07:00 1020 30.12 849 25.07 17.8 64 60 9.9 49.8
07:05 1020 30.12 849 25.07 17.9 64.3 59 10 50
07:10 1020 30.12 849 25.07 17.9 64.2 60 10.1 50.1
07:15 1020 30.12 849 25.07 18 64.5 59 9.9 49.9
07:20 1020 30.12 850 25.1 18.5 65.3 57 9.9 49.9
07:25 1020 30.12 850 25.1 18.9 66 57 10.4 50.8
07:30 1020 30.12 850 25.1 19 66.1 55 10 49.9
07:35 1020 30.12 850 25.1 19.4 67 52 9.4 49
07:40 1020 30.12 850 25.1 19.9 67.9 51 9.7 49.4
07:45 1020 30.12 850 25.1 20.5 68.9 50 10 49.9
07:50 1020 30.12 850 25.1 20.8 69.4 48 9.5 49.1
07:55 1020 30.12 850 25.1 20.9 69.5 47 9.3 48.7
08:00 1020 30.12 850 25.1 21.2 70.1 49 10 50.1
08:05 1020 30.12 850 25.1 21 69.7 54 11.4 52.5
08:10 1021 30.15 850 25.1 21.6 70.8 47 10.1 50.1
08:15 1021 30.15 850 25.1 22.3 72.1 47 10.5 50.9
08:20 1021 30.15 850 25.1 22.2 71.9 49 11.2 52.2
08:25 1021 30.15 850 25.1 22.4 72.3 46 10.3 50.6
08:30 1021 30.15 850 25.1 23.2 73.7 46 11.1 52
08:35 1021 30.15 850 25.1 22.7 72.9 47 10.9 51.7
08:40 1021 30.15 850 25.1 22.8 73 49 11.6 53
08:45 1020 30.12 850 25.1 23.4 74.2 46 11.3 52.4
08:50 1020 30.12 850 25.1 23.7 74.6 45 11.2 52.1
08:55 1020 30.12 850 25.1 23.6 74.4 46 11.3 52.4
09:00 1020 30.12 850 25.1 23.9 74.9 45 11.5 52.8
09:05 1020 30.12 850 25.1 23.8 74.9 48 12.3 54.1
09:10 1020 30.12 850 25.1 23.2 73.7 47 11.5 52.8
09:15 1020 30.12 849 25.07 23.8 74.8 46 11.7 53.1
09:20 1020 30.12 849 25.07 24.6 76.3 44 11.7 53
09:25 1020 30.12 849 25.07 24.4 75.9 46 12.3 54.1
09:30 1020 30.12 849 25.07 24.6 76.2 45 12.1 53.8
09:35 1020 30.12 849 25.07 24.5 76.2 45 12.1 53.9
09:40 1020 30.12 849 25.07 24.5 76 42 10.8 51.5
09:45 1020 30.12 849 25.07 25.3 77.5 41 11.1 52
09:50 1020 30.12 849 25.07 25.2 77.4 41 11.1 52.1
09:55 1020 30.12 849 25.07 25.4 77.7 42 11.9 53.4
10:00 1020 30.12 849 25.07 25.8 78.4 41 11.6 52.9
10:05 1020 30.12 849 25.07 26.3 79.4 39 11.4 52.5
10:10 1020 30.12 849 25.07 26.9 80.5 34 10.1 50.2
10:15 1020 30.12 849 25.07 26.8 80.3 39 11.9 53.5
10:20 1020 30.12 849 25.07 26.5 79.6 32 8.6 47.4
10:25 1020 30.12 849 25.07 26.6 79.9 31 8.6 47.4
10:30 1020 30.12 849 25.07 26.1 78.9 34 9.1 48.4
10:35 1019 30.09 849 25.07 26.2 79.2 34 9.5 49.2
10:40 1019 30.09 849 25.07 26.1 78.9 34 9.1 48.4
10:45 1019 30.09 849 25.07 26.5 79.7 35 10.1 50.1
10:50 1019 30.09 849 25.07 25.7 78.2 36 9.6 49.4
10:55 1019 30.09 849 25.07 26.3 79.3 34 9.4 49
11:00 1019 30.09 848 25.04 26.6 79.8 33 9.2 48.6
11:05 1019 30.09 848 25.04 26.7 80.1 31 8.6 47.5
11:10 1019 30.09 848 25.04 26.8 80.3 33 9.4 48.9
11:15 1019 30.09 848 25.04 27.6 81.6 32 9.5 49.1
11:20 1019 30.09 848 25.04 27.6 81.6 33 10.2 50.4
11:25 1019 30.09 848 25.04 26.8 80.3 33 9.6 49.3
11:30 1019 30.09 848 25.04 27.1 80.7 33 9.6 49.3
11:35 1019 30.09 848 25.04 26.8 80.2 34 9.9 49.8
11:40 1019 30.09 848 25.04 27.7 81.8 30 8.9 48
11:45 1019 30.09 848 25.04 27.4 81.3 32 9.6 49.3
11:50 1019 30.09 848 25.04 27.1 80.8 33 9.6 49.3
11:55 1019 30.09 848 25.04 27.4 81.4 31 9.1 48.3
12:00 1019 30.09 848 25.04 27.9 82.2 32 9.9 49.8
12:05 1019 30.09 848 25.04 28.4 83.2 31 9.8 49.7
12:10 1019 30.09 848 25.04 28.9 84 30 9.9 49.8
12:15 1018 30.06 848 25.04 28.8 83.8 28 8.9 48
12:20 1018 30.06 848 25.04 29.2 84.5 28 9 48.1
12:25 1018 30.06 847 25.01 29 84.2 27 8.5 47.3
12:30 1018 30.06 847 25.01 29.1 84.4 25 7.4 45.3
12:35 1018 30.06 847 25.01 29.1 84.3 27 8.2 46.8
12:40 1018 30.06 847 25.01 28.9 84 28 8.7 47.6
12:45 1018 30.06 847 25.01 29.2 84.6 28 8.9 48
12:50 1018 30.06 847 25.01 28.9 84 27 8.1 46.6
12:55 1018 30.06 847 25.01 29.6 85.2 23 6.3 43.4
13:00 1018 30.06 847 25.01 29.6 85.2 24 7 44.6
13:05 1018 30.06 847 25.01 29.8 85.6 23 6.8 44.2
13:10 1018 30.06 847 25.01 29.8 85.6 20 5.1 41.1
13:15 1018 30.06 847 25.01 30.3 86.6 23 7.5 45.5
13:20 1018 30.06 847 25.01 29.4 84.9 22 5.9 42.5
13:25 1018 30.06 847 25.01 30 86.1 18 3.5 38.3
13:30 1017 30.03 847 25.01 30.4 86.7 20 5.1 41.1
13:35 1017 30.03 847 25.01 30.6 87.1 20 5.3 41.5
13:40 1017 30.03 846 24.98 30.3 86.6 22 6.6 43.9
13:45 1017 30.03 846 24.98 29.2 84.6 22 5.3 41.6
13:50 1017 30.03 846 24.98 29.3 84.8 21 4.8 40.7
13:55 1017 30.03 846 24.98 28.8 83.8 22 5.1 41.2
14:00 1017 30.03 846 24.98 29.1 84.3 19 3.2 37.7
14:05 1017 30.03 846 24.98 29.9 85.8 15 1.2 34.1
14:10 1017 30.03 846 24.98 29.8 85.7 16 1.9 35.4
14:15 1017 30.03 846 24.98 29.7 85.4 13 -1.5 29.2
14:20 1017 30.03 846 24.98 29.4 85 11 -4.3 24.2
14:25 1017 30.03 846 24.98 29.2 84.6 12 -2.7 27.2
14:30 1017 30.03 846 24.98 30 86 11 -3.3 26.1
14:35 1017 30.03 846 24.98 30.6 87.2 11 -2.3 27.9
14:40 1017 30.03 846 24.98 29.9 85.9 11 -3.1 26.4
14:45 1017 30.03 846 24.98 29.4 84.8 13 -2 28.3
14:50 1016 30 846 24.98 29.7 85.5 10 -4.5 23.9
14:55 1016 30 846 24.98 29.6 85.2 11 -3.7 25.4
15:00 1016 30 846 24.98 29.6 85.3 11 -3.1 26.5
15:05 1016 30 846 24.98 29.9 85.9 12 -2.7 27.1
15:10 1016 30 846 24.98 29.8 85.7 12 -1.8 28.8
15:15 1016 30 845 24.95 30.1 86.1 12 -1.7 29
15:20 1016 30 845 24.95 30.4 86.6 12 -1.9 28.6
15:25 1016 30 845 24.95 30.5 86.8 11 -2.5 27.6
15:30 1016 30 845 24.95 29.8 85.6 12 -2.5 27.5
15:35 1016 30 845 24.95 29.7 85.5 13 -1.8 28.7
15:40 1016 30 845 24.95 29.4 84.8 12 -2.7 27.2
15:45 1016 30 845 24.95 29.5 85 12 -2.8 26.9
15:50 1016 30 845 24.95 29.8 85.6 12 -2.8 27
15:55 1016 30 845 24.95 29.7 85.4 12 -2.2 28.1
16:00 1016 30 845 24.95 29.7 85.4 12 -2 28.5
16:05 1016 30 845 24.95 29.5 85.1 13 -1.3 29.7
16:10 1016 30 845 24.95 29.3 84.8 14 -0.8 30.6
16:15 1016 30 845 24.95 29.5 85.1 14 -0.9 30.4
16:20 1016 30 845 24.95 29.3 84.7 14 -0.7 30.8
16:25 1016 30 845 24.95 28.6 83.4 26 7.5 45.5
16:30 1016 30 845 24.95 26.7 80 32 8.9 48.1
16:35 1016 30 845 24.95 25.9 78.6 33 8.8 47.9
16:40 1016 30 845 24.95 25.4 77.8 34 8.7 47.6
16:45 1016 30 845 24.95 25.1 77.2 36 9.2 48.6
16:50 1016 30 845 24.95 25 77.1 37 9.7 49.5
16:55 1016 30 845 24.95 24.8 76.7 37 9.4 49
17:00 1016 30 845 24.95 24.9 76.7 30 6.2 43.1
17:05 1016 30 845 24.95 25.2 77.4 28 5.8 42.4
17:10 1016 30 845 24.95 24.9 76.8 28 5.6 42
17:15 1016 30 845 24.95 24.5 76 29 5.3 41.6
17:20 1016 30 845 24.95 24.2 75.6 31 6.4 43.5
17:25 1016 30 845 24.95 23.9 75.1 34 7.4 45.3
17:30 1016 30 845 24.95 23.6 74.4 33 6.7 44
17:35 1016 30 845 24.95 23.5 74.3 32 6.2 43.1
17:40 1016 30 845 24.95 23.4 74.2 33 6.6 43.9
17:45 1016 30 845 24.95 23.3 73.9 32 6 42.9
17:50 1016 30 845 24.95 23.3 73.9 31 5.5 41.8
17:55 1016 30 845 24.95 23.2 73.8 31 5.4 41.7
18:00 1016 30 845 24.95 23.4 74.1 34 6.8 44.3
18:05 1016 30 845 24.95 23.4 74.1 33 6.5 43.8
18:10 1016 30 846 24.98 23.6 74.4 29 4.9 40.9
18:15 1016 30 845 24.95 23.9 75 28 4.7 40.5
18:20 1016 30 845 24.95 23.9 75 30 5.7 42.3
18:25 1016 30 845 24.95 23.8 74.9 30 5.6 42
18:30 1016 30 845 24.95 23.9 74.9 31 5.8 42.5
18:35 1016 30 845 24.95 23.7 74.7 32 6.1 43
18:40 1016 30 845 24.95 23.5 74.4 32 6 42.7
18:45 1016 30 845 24.95 23.4 74.1 33 6.5 43.8
18:50 1016 30 845 24.95 23.2 73.7 34 6.6 43.9
18:55 1016 30 845 24.95 23 73.4 35 6.8 44.2
19:00 1016 30 845 24.95 22.8 73.1 35 6.8 44.2
19:05 1016 30 845 24.95 22.8 73 36 7.3 45.2
19:10 1016 30 845 24.95 22.7 72.9 34 6.4 43.5
19:15 1016 30 846 24.98 22.7 72.9 36 7 44.5
19:20 1016 30 845 24.95 22.7 72.8 36 6.9 44.5
19:25 1016 30 845 24.95 22.5 72.5 38 7.5 45.6
19:30 1016 30 845 24.95 22.1 71.7 39 7.7 45.9
19:35 1016 30 845 24.95 21.8 71.2 41 8.2 46.7
19:40 1016 30 845 24.95 21.2 70.2 44 8.5 47.3
19:45 1016 30 845 24.95 21.1 69.9 44 8.4 47.1
19:50 1016 30 845 24.95 20.8 69.4 45 8.6 47.4
19:55 1016 30 845 24.95 20.3 68.6 51 9.9 49.8
20:00 1016 30 845 24.95 19.9 67.8 52 9.9 49.8
20:05 1016 30 845 24.95 19.7 67.5 51 9.3 48.8
20:10 1016 30 845 24.95 20 67.9 48 8.6 47.5
20:15 1016 30 845 24.95 20.1 68.1 49 9.1 48.5
20:20 1016 30 845 24.95 20 67.9 51 9.7 49.5
20:25 1016 30 845 24.95 19.8 67.6 51 9.6 49.3
20:30 1016 30 845 24.95 19.7 67.5 52 9.8 49.7
20:35 1016 30 845 24.95 19.5 67.1 53 9.8 49.7
20:40 1016 30 845 24.95 19.5 67.2 53 9.7 49.5
20:45 1016 30 845 24.95 19.5 67.1 53 9.7 49.5
20:50 1016 30 845 24.95 19.4 67 53 9.7 49.4
20:55 1016 30 845 24.95 19.2 66.5 55 10 50
21:00 1016 30 845 24.95 19 66.2 54 9.7 49.5
21:05 1016 30 845 24.95 19.2 66.6 52 9.2 48.6
21:10 1016 30 845 24.95 19.4 66.9 51 9.1 48.5
21:15 1016 30 845 24.95 19.5 67.1 51 9.3 48.7
21:20 1016 30 845 24.95 19.4 66.8 52 9.5 49.1
21:25 1016 30 845 24.95 19.3 66.7 52 9.2 48.5
21:30 1016 30 845 24.95 19.3 66.7 52 9.2 48.6
21:35 1016 30 845 24.95 19.4 67 52 9.4 48.9
21:40 1016 30 845 24.95 19.6 67.2 50 9.1 48.4
21:45 1016 30 845 24.95 19.5 67.1 52 9.6 49.2
21:50 1016 30 845 24.95 19.3 66.7 51 9.1 48.5
21:55 1016 30 845 24.95 18.9 66.1 55 9.8 49.6
22:00 1016 30 845 24.95 18.5 65.3 52 8.5 47.4
22:05 1016 30 845 24.95 18.7 65.7 52 8.7 47.7
22:10 1016 30 845 24.95 18.6 65.4 51 8.4 47.1
22:15 1016 30 845 24.95 18.5 65.3 52 8.5 47.4
22:20 1016 30 845 24.95 18.2 64.8 53 8.6 47.4
22:25 1016 30 845 24.95 18.1 64.5 51 8 46.4
22:30 1016 30 845 24.95 18.1 64.5 51 8 46.3
22:35 1016 30 845 24.95 18 64.4 50 7.6 45.7
22:40 1016 30 845 24.95 18.2 64.8 49 7.3 45.2
22:45 1016 30 845 24.95 18.3 65 49 7.6 45.7
22:50 1015 29.97 845 24.95 18.1 64.6 50 7.8 46
22:55 1015 29.97 845 24.95 17.9 64.2 53 8.2 46.7
23:00 1015 29.97 845 24.95 17.5 63.5 54 8.2 46.7
23:05 1015 29.97 845 24.95 17.4 63.4 55 8.4 47.1
23:10 1015 29.97 845 24.95 17.6 63.7 54 8.3 46.9
23:15 1016 30 845 24.95 17.8 64 55 8.6 47.5
23:20 1015 29.97 845 24.95 17.8 64 55 8.7 47.7
23:25 1015 29.97 845 24.95 17.6 63.7 56 8.7 47.7
23:30 1015 29.97 845 24.95 17.6 63.7 56 8.8 47.9
23:35 1015 29.97 845 24.95 17.2 62.9 57 8.7 47.7
23:40 1015 29.97 845 24.95 16.8 62.3 57 8.4 47.1
23:45 1015 29.97 845 24.95 16.8 62.3 56 8.1 46.6
23:50 1015 29.97 845 24.95 17.1 62.7 58 8.9 48
23:55 1015 29.97 844 24.92 17 62.7 57 8.5 47.2
24:00 1015 29.97 844 24.92 16.9 62.5 57 8.4 47.2